createdAt,value
2023-04-06T00:00:55.115Z,49742.94
2023-04-06T00:03:21.910Z,49727.00
2023-04-06T00:05:49.458Z,49764.88
2023-04-06T00:08:16.351Z,49736.97
2023-04-06T00:10:43.271Z,49733.00
2023-04-06T00:13:10.114Z,49721.03
2023-04-06T00:15:36.941Z,49727.00
2023-04-06T00:18:04.399Z,49734.97
2023-04-06T00:20:31.330Z,49719.03
2023-04-06T00:22:58.056Z,49733.00
2023-04-06T00:25:24.906Z,49703.09
2023-04-06T00:27:51.597Z,49727.00
2023-04-06T00:30:18.814Z,49734.97
2023-04-06T00:32:45.816Z,49719.03
2023-04-06T00:35:12.584Z,49762.88
2023-04-06T00:37:39.402Z,49721.03
2023-04-06T00:40:06.969Z,49721.03
2023-04-06T00:42:33.925Z,49711.06
2023-04-06T00:45:02.317Z,49699.09
2023-04-06T00:47:29.730Z,49723.03
2023-04-06T00:49:57.768Z,49742.94
2023-04-06T00:52:24.463Z,49715.03
2023-04-06T00:54:52.450Z,49756.91
2023-04-06T00:57:20.740Z,49695.09
2023-04-06T00:59:54.494Z,49734.97
2023-04-06T01:02:21.775Z,49717.03
2023-04-06T01:04:52.616Z,49731.00
2023-04-06T01:07:31.304Z,49723.03
2023-04-06T01:10:28.858Z,49721.03
2023-04-06T01:13:10.345Z,49725.00
2023-04-06T01:15:56.112Z,49719.03
2023-04-06T01:18:31.113Z,49719.03
2023-04-06T01:21:16.645Z,49699.09
2023-04-06T01:23:58.310Z,49758.91
2023-04-06T01:26:33.610Z,49691.13
2023-04-06T01:29:02.409Z,49738.97
2023-04-06T01:31:30.734Z,49693.13
2023-04-06T01:33:58.158Z,49734.97
2023-04-06T01:36:26.483Z,49719.03
2023-04-06T01:39:05.621Z,49701.09
2023-04-06T01:41:36.638Z,49738.97
2023-04-06T01:44:03.693Z,49707.06
2023-04-06T01:46:31.451Z,49703.09
2023-04-06T01:48:59.126Z,49734.97
2023-04-06T01:51:44.944Z,49705.06
2023-04-06T01:54:13.764Z,49675.19
2023-04-06T01:56:53.570Z,49709.06
2023-04-06T01:59:33.229Z,49750.94
2023-04-06T02:02:04.354Z,49734.97
2023-04-06T02:04:32.666Z,49709.06
2023-04-06T02:07:08.794Z,49725.00
2023-04-06T02:09:35.932Z,49711.06
2023-04-06T02:12:04.289Z,49697.09
2023-04-06T02:14:33.949Z,49731.00
2023-04-06T02:17:01.175Z,49703.09
2023-04-06T02:19:28.968Z,49754.91
2023-04-06T02:21:55.715Z,49709.06
2023-04-06T02:24:23.402Z,49701.09
2023-04-06T02:26:50.381Z,49719.03
2023-04-06T02:29:17.336Z,49699.09
2023-04-06T02:31:44.290Z,49721.03
2023-04-06T02:34:13.079Z,49770.88
2023-04-06T02:36:46.416Z,49705.06
2023-04-06T02:39:14.990Z,49742.94
2023-04-06T02:41:41.733Z,49738.97
2023-04-06T02:44:09.866Z,49701.09
2023-04-06T02:46:43.108Z,49683.16
2023-04-06T02:49:10.243Z,49736.97
2023-04-06T02:51:37.475Z,49729.00
2023-04-06T02:54:24.140Z,49683.16
2023-04-06T02:56:51.060Z,49717.03
2023-04-06T02:59:18.464Z,49713.06
2023-04-06T03:01:55.361Z,49734.97
2023-04-06T03:04:23.814Z,49721.03
2023-04-06T03:06:51.746Z,49707.06
2023-04-06T03:09:29.334Z,49695.09
2023-04-06T03:11:56.255Z,49717.03
2023-04-06T03:14:24.509Z,49717.03
2023-04-06T03:16:51.425Z,49738.97
2023-04-06T03:19:21.691Z,49748.94
2023-04-06T03:21:49.380Z,49731.00
2023-04-06T03:24:17.323Z,49754.91
2023-04-06T03:26:44.062Z,49744.94
2023-04-06T03:29:10.815Z,49738.97
2023-04-06T03:31:37.817Z,49695.09
2023-04-06T03:34:43.399Z,49703.09
2023-04-06T03:37:11.017Z,49748.94
2023-04-06T03:39:45.020Z,49711.06
2023-04-06T03:42:17.712Z,49707.06
2023-04-06T03:44:52.840Z,49715.03
2023-04-06T03:47:20.060Z,49709.06
2023-04-06T03:49:46.830Z,49768.88
2023-04-06T03:52:15.789Z,49723.03
2023-04-06T03:54:42.542Z,49719.03
2023-04-06T03:57:11.141Z,49727.00
2023-04-06T03:59:37.820Z,49701.09
2023-04-06T04:02:04.668Z,49703.09
2023-04-06T04:04:31.395Z,49691.13
2023-04-06T04:06:58.522Z,49742.94
2023-04-06T04:09:26.333Z,49721.03
2023-04-06T04:11:53.925Z,49727.00
2023-04-06T04:14:21.600Z,49744.94
2023-04-06T04:16:48.352Z,49715.03
2023-04-06T04:19:15.032Z,49701.09
2023-04-06T04:21:46.294Z,49742.94
2023-04-06T04:24:16.500Z,49721.03
2023-04-06T04:26:43.345Z,49721.03
2023-04-06T04:29:10.821Z,49707.06
2023-04-06T04:31:38.665Z,49689.13
2023-04-06T04:34:12.339Z,49711.06
2023-04-06T04:36:39.333Z,49719.03
2023-04-06T04:39:09.724Z,49727.00
2023-04-06T04:41:41.544Z,49731.00
2023-04-06T04:44:10.602Z,49756.91
2023-04-06T04:46:37.329Z,49734.97
2023-04-06T04:49:05.475Z,49707.06
2023-04-06T04:51:33.719Z,49693.13
2023-04-06T04:54:16.948Z,49711.06
2023-04-06T04:56:43.878Z,49713.06
2023-04-06T04:59:24.173Z,49725.00
2023-04-06T05:01:57.627Z,49740.97
2023-04-06T05:04:33.214Z,49709.06
2023-04-06T05:07:11.814Z,49715.03
2023-04-06T05:09:40.979Z,49750.94
2023-04-06T05:12:08.362Z,49723.03
2023-04-06T05:14:42.885Z,49742.94
2023-04-06T05:17:14.691Z,49709.06
2023-04-06T05:19:41.692Z,49738.97
2023-04-06T05:22:09.737Z,49754.91
2023-04-06T05:24:41.100Z,49695.09
2023-04-06T05:27:08.878Z,49754.91
2023-04-06T05:29:35.687Z,49734.97
2023-04-06T05:32:03.147Z,49727.00
2023-04-06T05:34:30.442Z,49717.03
2023-04-06T05:36:58.411Z,49744.94
2023-04-06T05:39:26.644Z,49734.97
2023-04-06T05:41:54.407Z,49713.06
2023-04-06T05:44:31.801Z,49727.00
2023-04-06T05:47:07.329Z,49719.03
2023-04-06T05:49:35.752Z,49729.00
2023-04-06T05:52:02.933Z,49733.00
2023-04-06T05:54:30.553Z,49731.00
2023-04-06T05:57:03.174Z,49734.97
2023-04-06T05:59:32.366Z,49691.13
2023-04-06T06:01:59.319Z,49719.03
2023-04-06T06:04:26.422Z,49733.00
2023-04-06T06:06:54.781Z,49699.09
2023-04-06T06:09:27.877Z,49715.03
2023-04-06T06:12:15.111Z,49754.91
2023-04-06T06:14:42.150Z,49691.13
2023-04-06T06:17:09.751Z,49744.94
2023-04-06T06:19:37.269Z,49772.84
2023-04-06T06:22:07.370Z,49736.97
2023-04-06T06:24:37.961Z,49715.03
2023-04-06T06:27:05.130Z,49703.09
2023-04-06T06:29:33.986Z,49725.00
2023-04-06T06:32:01.298Z,49723.03
2023-04-06T06:34:28.309Z,49719.03
2023-04-06T06:36:57.710Z,49742.94
2023-04-06T06:39:24.754Z,49746.94
2023-04-06T06:41:51.620Z,49727.00
2023-04-06T06:44:22.873Z,49675.19
2023-04-06T06:46:50.754Z,49733.00
2023-04-06T06:49:19.490Z,49731.00
2023-04-06T06:51:47.494Z,49727.00
2023-04-06T06:54:14.232Z,49711.06
2023-04-06T06:56:40.956Z,49715.03
2023-04-06T06:59:07.683Z,49746.94
2023-04-06T07:01:36.157Z,49711.06
2023-04-06T07:04:03.038Z,49729.00
2023-04-06T07:06:29.960Z,49736.97
2023-04-06T07:08:56.745Z,49731.00
2023-04-06T07:11:24.259Z,49736.97
2023-04-06T07:13:51.105Z,49727.00
2023-04-06T07:16:18.136Z,49731.00
2023-04-06T07:18:44.958Z,49723.03
2023-04-06T07:21:11.817Z,49727.00
2023-04-06T07:23:39.087Z,49687.13
2023-04-06T07:26:07.122Z,49738.97
2023-04-06T07:28:33.921Z,49727.00
2023-04-06T07:31:02.066Z,49719.03
2023-04-06T07:33:30.958Z,49733.00
2023-04-06T07:35:59.497Z,49713.06
2023-04-06T07:38:26.494Z,49729.00
2023-04-06T07:40:53.675Z,49723.03
2023-04-06T07:43:20.421Z,49689.13
2023-04-06T07:45:47.303Z,49721.03
2023-04-06T07:48:17.192Z,49709.06
2023-04-06T07:50:44.646Z,49691.13
2023-04-06T07:53:11.444Z,49707.06
2023-04-06T07:55:39.216Z,49703.09
2023-04-06T07:58:06.064Z,49685.13
2023-04-06T08:00:32.862Z,49665.22
2023-04-06T08:02:59.693Z,49729.00
2023-04-06T08:05:26.810Z,49729.00
2023-04-06T08:07:53.712Z,49709.06
2023-04-06T08:10:20.621Z,49683.16
2023-04-06T08:12:47.302Z,49715.03
2023-04-06T08:15:14.207Z,49752.91
2023-04-06T08:17:40.906Z,49715.03
2023-04-06T08:20:07.945Z,49754.91
2023-04-06T08:22:34.730Z,49709.06
2023-04-06T08:25:01.459Z,49723.03
2023-04-06T08:27:28.211Z,49723.03
2023-04-06T08:29:54.928Z,49711.06
2023-04-06T08:32:21.664Z,49752.91
2023-04-06T08:34:48.425Z,49711.06
2023-04-06T08:37:15.323Z,49733.00
2023-04-06T08:39:42.030Z,49738.97
2023-04-06T08:42:17.614Z,49758.91
2023-04-06T08:44:45.386Z,49729.00
2023-04-06T08:47:12.445Z,49697.09
2023-04-06T08:49:42.127Z,49727.00
2023-04-06T08:52:09.247Z,49711.06
2023-04-06T08:54:35.996Z,49715.03
2023-04-06T08:57:04.274Z,49683.16
2023-04-06T08:59:32.250Z,49738.97
2023-04-06T09:02:01.499Z,49721.03
2023-04-06T09:04:28.506Z,49723.03
2023-04-06T09:06:55.412Z,49740.97
2023-04-06T09:09:24.677Z,49736.97
2023-04-06T09:11:53.062Z,49742.94
2023-04-06T09:14:39.905Z,49707.06
2023-04-06T09:17:07.260Z,49770.88
2023-04-06T10:16:41.810Z,49754.91
2023-04-06T10:19:22.311Z,49742.94
2023-04-06T10:21:54.575Z,49734.97
2023-04-06T10:24:21.417Z,49719.03
2023-04-06T10:27:04.595Z,49746.94
2023-04-06T10:29:52.167Z,49727.00
2023-04-06T10:32:18.877Z,49746.94
2023-04-06T10:34:45.634Z,49742.94
2023-04-06T10:37:17.345Z,49727.00
2023-04-06T10:39:59.372Z,49679.16
2023-04-06T10:42:26.916Z,49772.84
2023-04-06T10:44:53.738Z,49746.94
2023-04-06T10:47:20.521Z,49760.91
2023-04-06T10:49:47.363Z,49713.06
2023-04-06T10:52:14.246Z,49721.03
2023-04-06T10:54:45.324Z,49701.09
2023-04-06T10:57:13.546Z,49734.97
2023-04-06T10:59:44.449Z,49719.03
2023-04-06T11:02:21.052Z,49711.06
2023-04-06T11:04:58.673Z,49740.97
2023-04-06T11:07:30.584Z,49707.06
2023-04-06T11:10:13.434Z,49727.00
2023-04-06T11:12:43.924Z,49709.06
2023-04-06T11:15:11.072Z,49754.91
2023-04-06T11:17:38.327Z,49733.00
2023-04-06T11:20:10.797Z,49746.94
2023-04-06T11:22:37.508Z,49719.03
2023-04-06T11:27:35.975Z,49762.88
2023-04-06T11:30:03.106Z,49750.94
2023-04-06T11:32:30.567Z,49736.97
2023-04-06T11:34:59.164Z,49703.09
2023-04-06T11:37:28.508Z,49754.91
2023-04-06T11:39:56.350Z,49725.00
2023-04-06T11:42:27.792Z,49727.00
2023-04-06T11:44:56.135Z,49778.84
2023-04-06T11:47:29.669Z,49750.94
2023-04-06T11:49:56.821Z,49715.03
2023-04-06T11:52:25.293Z,49748.94
2023-04-06T11:54:53.874Z,49738.97
2023-04-06T11:57:22.546Z,49746.94
2023-04-06T11:59:49.316Z,49742.94
2023-04-06T12:02:16.330Z,49756.91
2023-04-06T12:04:43.157Z,49774.84
2023-04-06T12:07:09.979Z,49746.94
2023-04-06T12:09:37.864Z,49770.88
2023-04-06T12:12:04.651Z,49742.94
2023-04-06T12:14:31.839Z,49758.91
2023-04-06T12:16:59.555Z,49725.00
2023-04-06T12:19:27.022Z,49786.81
2023-04-06T12:21:55.573Z,49758.91
2023-04-06T12:24:22.550Z,49748.94
2023-04-06T12:26:51.662Z,49740.97
2023-04-06T12:29:21.327Z,49740.97
2023-04-06T12:31:48.107Z,49725.00
2023-04-06T12:34:14.890Z,49776.84
2023-04-06T12:36:41.698Z,49758.91
2023-04-06T12:39:08.441Z,49754.91
2023-04-06T12:41:35.539Z,49790.81
2023-04-06T12:44:02.995Z,49746.94
2023-04-06T12:46:33.623Z,49778.84
2023-04-06T12:49:00.480Z,49721.03
2023-04-06T12:51:30.428Z,49778.84
2023-04-06T12:53:57.270Z,49752.91
2023-04-06T12:56:24.197Z,49754.91
2023-04-06T12:58:54.121Z,49752.91
2023-04-06T13:01:21.339Z,49758.91
2023-04-06T13:03:48.189Z,49752.91
2023-04-06T13:06:16.281Z,49762.88
2023-04-06T13:08:43.703Z,49734.97
2023-04-06T13:11:10.641Z,49778.84
2023-04-06T13:13:38.178Z,49750.94
2023-04-06T13:16:08.139Z,49772.84
2023-04-06T13:18:36.450Z,49770.88
2023-04-06T13:21:03.490Z,49740.97
2023-04-06T13:23:30.343Z,49770.88
2023-04-06T13:26:05.481Z,49746.94
2023-04-06T13:28:33.461Z,49758.91
2023-04-06T13:31:01.421Z,49727.00
2023-04-06T13:33:29.355Z,49746.94
2023-04-06T13:35:56.056Z,49727.00
2023-04-06T13:38:25.008Z,49746.94
2023-04-06T13:40:52.720Z,49744.94
2023-04-06T13:43:21.262Z,49754.91
2023-04-06T13:45:53.372Z,49738.97
2023-04-06T13:48:20.341Z,49715.03
2023-04-06T13:50:47.318Z,49754.91
2023-04-06T13:53:14.476Z,49764.88
2023-04-06T13:55:41.829Z,49750.94
2023-04-06T13:58:08.553Z,49754.91
2023-04-06T14:00:35.882Z,49786.81
2023-04-06T14:03:02.701Z,49752.91
2023-04-06T14:05:34.012Z,49782.81
2023-04-06T14:08:00.994Z,49754.91
2023-04-06T14:10:28.952Z,49766.88
2023-04-06T14:12:56.794Z,49766.88
2023-04-06T14:15:25.061Z,49762.88
2023-04-06T14:17:52.554Z,49754.91
2023-04-06T14:20:20.114Z,49738.97
2023-04-06T14:22:47.603Z,49760.91
2023-04-06T14:25:14.720Z,49782.81
2023-04-06T14:27:41.502Z,49742.94
2023-04-06T14:30:09.256Z,49742.94
2023-04-06T14:32:37.621Z,49770.88
2023-04-06T14:35:08.195Z,49788.81
2023-04-06T14:37:35.348Z,49790.81
2023-04-06T14:40:02.309Z,49758.91
2023-04-06T14:42:28.958Z,49756.91
2023-04-06T14:44:55.714Z,49758.91
2023-04-06T14:47:22.801Z,49758.91
2023-04-06T14:49:53.482Z,49772.84
2023-04-06T14:52:20.571Z,49764.88
2023-04-06T14:54:47.338Z,49770.88
2023-04-06T14:57:14.217Z,49768.88
2023-04-06T14:59:40.981Z,49758.91
2023-04-06T15:02:08.221Z,49762.88
2023-04-06T15:04:36.508Z,49750.94
2023-04-06T15:07:03.316Z,49792.78
2023-04-06T15:09:30.347Z,49772.84
2023-04-06T15:11:57.541Z,49762.88
2023-04-06T15:14:24.224Z,49770.88
2023-04-06T15:16:50.940Z,49788.81
2023-04-06T15:19:17.653Z,49766.88
2023-04-06T15:21:44.370Z,49762.88
2023-04-06T15:24:11.234Z,49784.81
2023-04-06T15:26:37.967Z,49762.88
2023-04-06T15:29:05.156Z,49784.81
2023-04-06T15:31:37.663Z,49762.88
2023-04-06T15:34:06.493Z,49802.75
2023-04-06T15:36:33.968Z,49776.84
2023-04-06T15:39:01.039Z,49794.78
2023-04-06T15:41:28.488Z,49786.81
2023-04-06T15:43:55.786Z,49762.88
2023-04-06T15:46:24.266Z,49802.75
2023-04-06T15:48:51.080Z,49784.81
2023-04-06T15:51:17.989Z,49790.81
2023-04-06T15:53:45.505Z,49782.81
2023-04-06T15:56:14.416Z,49784.81
2023-04-06T15:58:42.138Z,49772.84
2023-04-06T16:01:19.296Z,49772.84
2023-04-06T16:03:46.645Z,49802.75
2023-04-06T16:06:13.463Z,49762.88
2023-04-06T16:08:41.052Z,49828.69
2023-04-06T16:11:08.062Z,49806.75
2023-04-06T16:13:35.641Z,49780.84
2023-04-06T16:16:04.062Z,49758.91
2023-04-06T16:18:32.461Z,49762.88
2023-04-06T16:21:00.369Z,49794.78
2023-04-06T16:23:27.339Z,49794.78
2023-04-06T16:25:57.899Z,49786.81
2023-04-06T16:28:25.517Z,49802.75
2023-04-06T16:30:53.096Z,49776.84
2023-04-06T16:33:19.883Z,49764.88
2023-04-06T16:35:47.175Z,49794.78
2023-04-06T16:38:14.977Z,49770.88
2023-04-06T16:40:41.959Z,49790.81
2023-04-06T16:43:09.902Z,49806.75
2023-04-06T16:45:37.011Z,49776.84
2023-04-06T16:48:03.872Z,49790.81
2023-04-06T16:50:30.859Z,49778.84
2023-04-06T16:52:57.723Z,49846.63
2023-04-06T16:55:24.405Z,49792.78
2023-04-06T16:57:55.370Z,49786.81
2023-04-06T17:00:22.350Z,49786.81
2023-04-06T17:02:49.316Z,49788.81
2023-04-06T17:05:18.173Z,49764.88
2023-04-06T17:07:48.918Z,49786.81
2023-04-06T17:10:17.595Z,49802.75
2023-04-06T17:12:46.752Z,49798.78
2023-04-06T17:15:14.390Z,49776.84
2023-04-06T17:17:44.737Z,49800.78
2023-04-06T17:20:11.500Z,49814.72
2023-04-06T17:22:38.221Z,49796.78
2023-04-06T17:25:08.314Z,49788.81
2023-04-06T17:27:35.475Z,49790.81
2023-04-06T17:30:06.428Z,49764.88
2023-04-06T17:32:34.346Z,49806.75
2023-04-06T17:35:01.419Z,49804.75
2023-04-06T17:37:28.202Z,49786.81
2023-04-06T17:39:55.386Z,49794.78
2023-04-06T17:44:53.759Z,49808.75
2023-04-06T17:47:20.724Z,49778.84
2023-04-06T17:49:47.743Z,49802.75
2023-04-06T17:52:14.428Z,49800.78
2023-04-06T17:54:41.326Z,49834.66
2023-04-06T17:57:08.616Z,49746.94
2023-04-06T17:59:35.364Z,49778.84
2023-04-06T18:02:04.176Z,49808.75
2023-04-06T18:04:31.348Z,49802.75
2023-04-06T18:06:58.175Z,49802.75
2023-04-06T18:11:57.211Z,49806.75
2023-04-06T18:14:24.278Z,49794.78
2023-04-06T18:16:50.989Z,49766.88
2023-04-06T18:19:17.689Z,49816.72
2023-04-06T18:21:44.366Z,49770.88
2023-04-06T18:24:15.150Z,49804.75
2023-04-06T18:26:49.686Z,49798.78
2023-04-06T18:29:16.558Z,49842.63
2023-04-06T18:31:44.782Z,49762.88
2023-04-06T18:34:11.511Z,49802.75
2023-04-06T18:36:38.181Z,49786.81
2023-04-06T18:39:05.124Z,49824.69
2023-04-06T18:41:31.929Z,49810.75
2023-04-06T18:43:58.615Z,49760.91
2023-04-06T18:46:25.429Z,49796.78
2023-04-06T18:48:52.140Z,49814.72
2023-04-06T18:51:18.829Z,49810.75
2023-04-06T18:53:45.558Z,49804.75
2023-04-06T18:56:19.568Z,49770.88
2023-04-06T18:58:49.047Z,49810.75
2023-04-06T19:01:28.090Z,49832.66
2023-04-06T19:03:56.813Z,49764.88
2023-04-06T19:06:24.698Z,49832.66
2023-04-06T19:08:51.402Z,49790.81
2023-04-06T19:11:18.141Z,49824.69
2023-04-06T19:13:49.983Z,49774.84
2023-04-06T19:16:17.760Z,49822.69
2023-04-06T19:18:45.671Z,49784.81
2023-04-06T19:21:20.576Z,49782.81
2023-04-06T19:23:52.251Z,49808.75
2023-04-06T19:26:20.506Z,49812.72
2023-04-06T19:28:47.648Z,49824.69
2023-04-06T19:31:17.041Z,49810.75
2023-04-06T19:33:45.412Z,49802.75
2023-04-06T19:36:12.712Z,49804.75
2023-04-06T19:38:39.895Z,49788.81
2023-04-06T19:41:06.628Z,49770.88
2023-04-06T19:43:33.595Z,49804.75
2023-04-06T19:46:00.479Z,49802.75
2023-04-06T19:48:27.292Z,49804.75
2023-04-06T19:50:54.901Z,49818.72
2023-04-06T19:53:22.512Z,49804.75
2023-04-06T19:55:50.062Z,49808.75
2023-04-06T19:58:16.848Z,49784.81
2023-04-06T20:00:43.642Z,49830.66
2023-04-06T20:03:10.681Z,49816.72
2023-04-06T20:05:37.572Z,49834.66
2023-04-06T20:08:04.373Z,49832.66
2023-04-06T20:10:31.181Z,49846.63
2023-04-06T20:13:00.519Z,49802.75
2023-04-06T20:15:27.510Z,49780.84
2023-04-06T20:17:54.189Z,49846.63
2023-04-06T20:20:21.223Z,49826.69
2023-04-06T20:22:50.157Z,49818.72
2023-04-06T20:25:18.439Z,49818.72
2023-04-06T20:27:48.416Z,49822.69
2023-04-06T20:30:16.727Z,49834.66
2023-04-06T20:32:43.867Z,49802.75
2023-04-06T20:35:11.130Z,49830.66
2023-04-06T20:37:37.991Z,49808.75
2023-04-06T20:40:05.444Z,49838.66
2023-04-06T20:42:32.363Z,49832.66
2023-04-06T20:44:59.509Z,49846.63
2023-04-06T20:47:27.259Z,49814.72
2023-04-06T20:49:54.066Z,49834.66
2023-04-06T20:52:21.005Z,49826.69
2023-04-06T20:54:48.525Z,49822.69
2023-04-06T20:57:15.476Z,49832.66
2023-04-06T20:59:42.644Z,49822.69
2023-04-06T21:02:09.516Z,49846.63
2023-04-06T21:04:37.089Z,49854.59
2023-04-06T21:07:05.581Z,49804.75
2023-04-06T21:09:37.726Z,49840.63
2023-04-06T21:12:05.926Z,49822.69
2023-04-06T21:14:33.145Z,49838.66
2023-04-06T21:17:00.712Z,49814.72
2023-04-06T21:19:30.385Z,49834.66
2023-04-06T21:21:57.192Z,49854.59
2023-04-06T21:24:23.848Z,49826.69
2023-04-06T21:26:50.667Z,49842.63
2023-04-06T21:29:17.477Z,49828.69
2023-04-06T21:31:44.221Z,49850.59
2023-04-06T21:34:11.828Z,49822.69
2023-04-06T21:36:39.058Z,49834.66
2023-04-06T21:39:06.048Z,49808.75
2023-04-06T21:41:33.413Z,49798.78
2023-04-06T21:44:00.450Z,49760.91
2023-04-06T21:46:27.260Z,49808.75
2023-04-06T21:48:54.015Z,49818.72
2023-04-06T21:51:22.577Z,49838.66
2023-04-06T21:53:50.300Z,49846.63
2023-04-06T21:56:22.239Z,49846.63
2023-04-06T21:58:49.958Z,49834.66
2023-04-06T22:01:17.701Z,49832.66
2023-04-06T22:03:45.308Z,49798.78
2023-04-06T22:06:12.400Z,49830.66
2023-04-06T22:08:39.184Z,49846.63
2023-04-06T22:11:11.269Z,49810.75
2023-04-06T22:13:38.509Z,49866.56
2023-04-06T22:16:06.592Z,49804.75
2023-04-06T22:18:34.129Z,49834.66
2023-04-06T22:21:03.474Z,49802.75
2023-04-06T22:23:32.220Z,49838.66
2023-04-06T22:25:58.884Z,49842.63
2023-04-06T22:28:26.408Z,49836.66
2023-04-06T22:30:53.300Z,49832.66
2023-04-06T22:33:20.104Z,49826.69
2023-04-06T22:35:46.960Z,49842.63
2023-04-06T22:38:13.642Z,49866.56
2023-04-06T22:40:40.415Z,49840.63
2023-04-06T22:43:07.203Z,49800.78
2023-04-06T22:45:33.862Z,49806.75
2023-04-06T22:48:00.613Z,49828.69
2023-04-06T22:50:27.653Z,49828.69
2023-04-06T22:52:54.524Z,49832.66
2023-04-06T22:55:21.328Z,49866.56
2023-04-06T22:57:48.109Z,49840.63
2023-04-06T23:00:15.176Z,49858.59
2023-04-06T23:02:41.962Z,49850.59
2023-04-06T23:05:09.163Z,49820.69
2023-04-06T23:07:36.105Z,49820.69
2023-04-06T23:10:03.348Z,49844.63
2023-04-06T23:12:30.371Z,49864.56
2023-04-06T23:14:57.097Z,49826.69
2023-04-06T23:17:24.080Z,49850.59
2023-04-06T23:19:51.462Z,49860.56
2023-04-06T23:22:18.220Z,49844.63
2023-04-06T23:24:44.952Z,49848.63
2023-04-06T23:27:11.658Z,49834.66
2023-04-06T23:29:38.403Z,49832.66
2023-04-06T23:32:05.531Z,49838.66
2023-04-06T23:34:32.334Z,49862.56
2023-04-06T23:37:02.837Z,49842.63
2023-04-06T23:39:29.756Z,49832.66
2023-04-06T23:41:57.799Z,49852.59
2023-04-06T23:44:24.890Z,49840.63
2023-04-06T23:46:51.815Z,49864.56
2023-04-06T23:49:18.675Z,49868.56
2023-04-06T23:51:45.373Z,49854.59
2023-04-06T23:54:12.126Z,49840.63
2023-04-06T23:56:38.842Z,49870.53
2023-04-06T23:59:05.531Z,49814.72
